createdAt,value
2023-01-13T00:01:27.880Z,14.90
2023-01-13T00:03:55.951Z,10.20
2023-01-13T00:06:29.476Z,8.30
2023-01-13T00:08:58.147Z,9.90
2023-01-13T00:11:26.548Z,11.30
2023-01-13T00:13:54.484Z,12.40
2023-01-13T00:16:21.982Z,8.50
2023-01-13T00:18:51.383Z,10.70
2023-01-13T00:21:21.771Z,15.50
2023-01-13T00:23:49.678Z,11.20
2023-01-13T00:26:20.271Z,10.00
2023-01-13T00:28:48.138Z,11.70
2023-01-13T00:31:17.844Z,10.60
2023-01-13T00:33:45.511Z,14.30
2023-01-13T00:36:14.788Z,11.60
2023-01-13T00:38:43.343Z,13.40
2023-01-13T00:41:13.467Z,10.30
2023-01-13T00:43:41.566Z,8.40
2023-01-13T00:46:11.213Z,11.50
2023-01-13T00:48:38.760Z,9.50
2023-01-13T00:51:07.431Z,12.80
2023-01-13T00:53:37.723Z,11.60
2023-01-13T00:56:08.254Z,9.00
2023-01-13T00:58:36.211Z,12.80
2023-01-13T01:01:06.965Z,11.60
2023-01-13T01:03:35.432Z,13.00
2023-01-13T01:06:14.283Z,11.30
2023-01-13T01:08:42.287Z,10.30
2023-01-13T01:11:13.740Z,8.10
2023-01-13T01:13:41.730Z,8.80
2023-01-13T01:16:11.805Z,10.40
2023-01-13T01:18:41.380Z,8.40
2023-01-13T01:21:10.038Z,8.50
2023-01-13T01:23:38.170Z,9.60
2023-01-13T01:26:08.349Z,9.50
2023-01-13T01:28:35.665Z,11.20
2023-01-13T01:31:08.609Z,9.90
2023-01-13T01:33:35.810Z,10.80
2023-01-13T01:36:04.214Z,10.00
2023-01-13T01:38:31.464Z,9.90
2023-01-13T01:40:58.803Z,9.90
2023-01-13T01:44:08.613Z,7.20
2023-01-13T01:46:43.734Z,9.30
2023-01-13T01:49:33.836Z,9.30
2023-01-13T01:52:12.390Z,10.70
2023-01-13T01:54:48.185Z,7.90
2023-01-13T01:57:27.344Z,8.70
2023-01-13T01:59:54.935Z,7.90
2023-01-13T02:02:22.753Z,5.30
2023-01-13T02:04:53.562Z,5.80
2023-01-13T02:07:28.041Z,6.20
2023-01-13T02:09:57.925Z,10.00
2023-01-13T02:12:30.344Z,6.90
2023-01-13T02:15:07.893Z,5.50
2023-01-13T02:18:02.893Z,7.60
2023-01-13T02:20:36.211Z,6.00
2023-01-13T02:23:57.844Z,8.40
2023-01-13T02:26:53.390Z,6.90
2023-01-13T02:29:58.403Z,4.30
2023-01-13T02:32:44.339Z,5.60
2023-01-13T02:35:35.480Z,6.20
2023-01-13T02:38:04.034Z,8.50
2023-01-13T02:40:43.107Z,8.80
2023-01-13T02:43:32.178Z,7.70
2023-01-13T02:46:06.919Z,8.40
2023-01-13T02:48:36.412Z,6.20
2023-01-13T02:51:12.422Z,10.30
2023-01-13T02:53:48.637Z,7.20
2023-01-13T02:56:17.515Z,9.60
2023-01-13T02:58:47.340Z,6.70
2023-01-13T03:01:14.537Z,8.70
2023-01-13T03:03:42.105Z,9.80
2023-01-13T03:06:29.955Z,8.40
2023-01-13T03:09:20.506Z,8.70
2023-01-13T03:12:13.792Z,7.90
2023-01-13T03:14:57.815Z,7.20
2023-01-13T03:17:36.945Z,10.70
2023-01-13T03:20:17.451Z,5.80
2023-01-13T03:23:17.665Z,8.90
2023-01-13T03:25:56.870Z,8.40
2023-01-13T03:28:32.568Z,7.60
2023-01-13T03:31:09.871Z,11.30
2023-01-13T03:33:45.566Z,8.00
2023-01-13T03:38:45.482Z,6.40
2023-01-13T03:41:18.274Z,5.10
2023-01-13T03:44:12.946Z,6.40
2023-01-13T03:46:49.517Z,8.70
2023-01-13T03:49:22.539Z,9.10
2023-01-13T03:51:57.207Z,8.20
2023-01-13T03:54:28.552Z,7.50
2023-01-13T03:57:00.469Z,7.60
2023-01-13T03:59:33.675Z,9.60
2023-01-13T04:02:16.868Z,7.80
2023-01-13T04:05:03.218Z,6.70
2023-01-13T04:07:53.127Z,7.30
2023-01-13T04:10:27.749Z,8.90
2023-01-13T04:13:03.307Z,5.70
2023-01-13T04:15:36.552Z,9.80
2023-01-13T04:18:13.702Z,6.50
2023-01-13T04:20:42.483Z,11.70
2023-01-13T04:23:10.715Z,6.30
2023-01-13T04:25:37.962Z,9.40
2023-01-13T04:28:05.323Z,8.00
2023-01-13T04:30:32.600Z,5.70
2023-01-13T04:32:59.831Z,8.20
2023-01-13T04:35:27.081Z,5.60
2023-01-13T04:37:54.212Z,5.40
2023-01-13T04:40:21.567Z,6.80
2023-01-13T04:42:48.661Z,11.10
2023-01-13T04:45:15.897Z,8.50
2023-01-13T04:47:43.140Z,4.60
2023-01-13T04:50:11.224Z,6.50
2023-01-13T04:52:39.127Z,5.80
2023-01-13T04:55:07.640Z,5.90
2023-01-13T04:57:35.213Z,6.60
2023-01-13T05:00:02.365Z,8.50
2023-01-13T05:02:29.580Z,6.60
2023-01-13T05:04:56.918Z,5.90
2023-01-13T05:07:24.142Z,6.80
2023-01-13T05:09:51.355Z,5.40
2023-01-13T05:12:37.157Z,4.30
2023-01-13T05:15:23.547Z,5.40
2023-01-13T05:17:51.443Z,3.70
2023-01-13T05:20:18.647Z,3.80
2023-01-13T05:23:04.615Z,8.80
2023-01-13T05:25:31.822Z,5.40
2023-01-13T05:28:00.149Z,8.20
2023-01-13T05:30:31.164Z,6.60
2023-01-13T05:32:58.515Z,6.00
2023-01-13T05:35:26.004Z,3.80
2023-01-13T05:37:55.244Z,3.90
2023-01-13T05:40:41.604Z,5.60
2023-01-13T05:43:21.056Z,5.60
2023-01-13T05:45:51.138Z,6.50
2023-01-13T05:48:20.588Z,5.50
2023-01-13T05:50:49.277Z,5.40
2023-01-13T05:53:17.917Z,4.50
2023-01-13T05:55:45.443Z,7.00
2023-01-13T05:58:15.061Z,5.90
2023-01-13T06:00:42.399Z,11.90
2023-01-13T06:03:10.591Z,24.40
2023-01-13T06:05:38.271Z,16.50
2023-01-13T06:08:07.318Z,15.80
2023-01-13T06:10:35.364Z,9.10
2023-01-13T06:13:03.100Z,18.40
2023-01-13T06:15:30.298Z,7.20
2023-01-13T06:17:57.378Z,7.30
2023-01-13T06:20:25.074Z,5.60
2023-01-13T06:22:54.445Z,9.90
2023-01-13T06:25:52.418Z,9.80
2023-01-13T06:28:19.487Z,4.60
2023-01-13T06:30:54.245Z,5.60
2023-01-13T06:33:30.336Z,8.00
2023-01-13T06:36:02.299Z,9.70
2023-01-13T06:38:34.462Z,12.50
2023-01-13T06:41:01.859Z,4.70
2023-01-13T06:43:28.995Z,6.20
2023-01-13T06:45:56.951Z,5.20
2023-01-13T06:48:28.022Z,4.30
2023-01-13T06:50:55.537Z,43.90
2023-01-13T06:53:22.614Z,36.50
2023-01-13T06:55:49.768Z,31.00
2023-01-13T06:58:17.348Z,24.20
2023-01-13T07:00:44.643Z,21.00
2023-01-13T07:03:14.645Z,22.30
2023-01-13T07:05:43.387Z,22.90
2023-01-13T07:08:11.255Z,16.50
2023-01-13T07:10:38.789Z,24.60
2023-01-13T07:13:25.469Z,12.20
2023-01-13T07:15:57.220Z,11.80
2023-01-13T07:18:25.554Z,9.40
2023-01-13T07:20:57.242Z,26.80
2023-01-13T07:23:25.519Z,17.40
2023-01-13T07:25:55.403Z,18.60
2023-01-13T07:28:22.966Z,24.00
2023-01-13T07:30:50.095Z,22.10
2023-01-13T07:33:18.712Z,13.40
2023-01-13T07:35:47.331Z,21.70
2023-01-13T07:38:15.484Z,30.00
2023-01-13T07:40:42.850Z,31.90
2023-01-13T07:43:31.965Z,19.80
2023-01-13T07:46:00.090Z,18.10
2023-01-13T07:48:28.227Z,28.40
2023-01-13T07:50:56.162Z,21.30
2023-01-13T07:53:25.411Z,29.20
2023-01-13T07:55:57.127Z,27.50
2023-01-13T07:58:25.712Z,30.90
2023-01-13T08:00:53.316Z,16.40
2023-01-13T08:03:20.862Z,12.50
2023-01-13T08:05:48.579Z,10.50
2023-01-13T08:08:16.162Z,13.90
2023-01-13T08:10:43.461Z,13.50
2023-01-13T08:13:20.272Z,17.20
2023-01-13T08:15:51.833Z,9.50
2023-01-13T08:18:22.255Z,11.20
2023-01-13T08:20:52.585Z,13.00
2023-01-13T08:23:21.486Z,11.60
2023-01-13T08:25:49.405Z,10.80
2023-01-13T08:28:17.242Z,13.50
2023-01-13T08:30:44.589Z,19.60
2023-01-13T08:33:13.093Z,14.50
2023-01-13T08:35:41.586Z,14.50
2023-01-13T08:38:09.356Z,12.90
2023-01-13T08:40:37.538Z,11.40
2023-01-13T08:43:04.679Z,12.10
2023-01-13T08:45:32.085Z,15.50
2023-01-13T08:47:59.309Z,14.50
2023-01-13T08:50:26.590Z,10.00
2023-01-13T08:52:53.754Z,9.50
2023-01-13T08:55:21.022Z,7.80
2023-01-13T08:57:48.239Z,10.90
2023-01-13T09:00:17.350Z,6.50
2023-01-13T09:02:44.681Z,9.50
2023-01-13T09:05:11.982Z,10.10
2023-01-13T09:07:39.695Z,11.10
2023-01-13T09:10:08.277Z,10.30
2023-01-13T09:13:14.368Z,11.00
2023-01-13T09:15:45.109Z,8.30
2023-01-13T09:18:12.991Z,10.20
2023-01-13T09:20:40.659Z,8.30
2023-01-13T09:23:10.612Z,13.50
2023-01-13T09:25:38.876Z,16.00
2023-01-13T09:28:08.472Z,7.40
2023-01-13T09:30:37.763Z,10.00
2023-01-13T09:33:24.176Z,10.50
2023-01-13T09:35:51.315Z,11.30
2023-01-13T09:38:18.518Z,10.20
2023-01-13T09:40:49.067Z,10.80
2023-01-13T09:43:54.692Z,13.50
2023-01-13T09:46:44.101Z,13.50
2023-01-13T09:49:22.258Z,14.20
2023-01-13T09:52:04.769Z,12.80
2023-01-13T09:54:41.905Z,10.90
2023-01-13T09:57:17.166Z,13.60
2023-01-13T09:59:45.180Z,14.60
2023-01-13T10:02:31.229Z,12.10
2023-01-13T10:07:37.670Z,15.00
2023-01-13T10:10:10.137Z,19.30
2023-01-13T10:12:55.872Z,13.00
2023-01-13T10:15:26.381Z,13.60
2023-01-13T10:17:58.952Z,14.10
2023-01-13T10:20:31.867Z,21.80
2023-01-13T10:23:23.187Z,20.80
2023-01-13T10:26:14.342Z,22.10
2023-01-13T10:28:41.703Z,28.50
2023-01-13T10:31:14.927Z,27.70
2023-01-13T10:33:42.133Z,47.90
2023-01-13T10:36:12.471Z,39.40
2023-01-13T10:38:45.565Z,34.10
2023-01-13T10:41:15.552Z,34.10
2023-01-13T10:43:58.201Z,43.00
2023-01-13T10:46:25.725Z,48.00
2023-01-13T10:48:55.867Z,38.50
2023-01-13T10:51:29.357Z,66.60
2023-01-13T10:53:58.833Z,40.90
2023-01-13T10:56:29.996Z,18.20
2023-01-13T10:59:13.338Z,19.70
2023-01-13T11:01:44.118Z,20.50
2023-01-13T11:04:33.115Z,21.00
2023-01-13T11:07:01.151Z,12.60
2023-01-13T11:09:31.118Z,13.50
2023-01-13T11:11:59.578Z,14.00
2023-01-13T11:14:44.059Z,11.30
2023-01-13T11:18:00.635Z,11.60
2023-01-13T11:20:37.111Z,15.20
2023-01-13T11:23:22.991Z,25.70
2023-01-13T11:25:55.089Z,204.00
2023-01-13T11:28:43.641Z,112.60
2023-01-13T11:31:24.682Z,93.70
2023-01-13T11:34:00.310Z,46.10
2023-01-13T11:39:27.114Z,36.40
2023-01-13T11:42:18.679Z,30.80
2023-01-13T11:44:58.986Z,27.00
2023-01-13T11:47:27.318Z,32.40
2023-01-13T11:49:54.923Z,24.30
2023-01-13T11:52:34.343Z,25.20
2023-01-13T11:55:17.085Z,48.10
2023-01-13T11:58:17.564Z,104.30
2023-01-13T12:01:08.892Z,65.00
2023-01-13T12:03:59.324Z,88.60
2023-01-13T12:06:37.999Z,43.40
2023-01-13T12:09:28.617Z,41.70
2023-01-13T12:12:33.049Z,49.40
2023-01-13T12:15:18.581Z,27.70
2023-01-13T12:18:07.286Z,48.00
2023-01-13T12:20:49.798Z,26.30
2023-01-13T12:23:29.259Z,41.20
2023-01-13T12:26:05.653Z,111.40
2023-01-13T12:28:43.496Z,49.60
2023-01-13T12:31:11.353Z,28.60
2023-01-13T12:33:54.060Z,22.10
2023-01-13T12:36:42.861Z,40.70
2023-01-13T12:39:28.428Z,27.60
2023-01-13T12:42:17.183Z,20.90
2023-01-13T12:45:12.591Z,32.00
2023-01-13T12:47:44.488Z,24.00
2023-01-13T12:50:24.899Z,21.70
2023-01-13T12:52:52.374Z,20.40
2023-01-13T12:55:21.761Z,27.20
2023-01-13T12:58:08.262Z,19.40
2023-01-13T13:00:41.826Z,20.40
2023-01-13T13:03:15.803Z,14.50
2023-01-13T13:05:47.947Z,18.10
2023-01-13T13:08:24.909Z,18.70
2023-01-13T13:11:32.468Z,14.00
2023-01-13T13:14:06.126Z,17.30
2023-01-13T13:16:46.525Z,17.20
2023-01-13T13:19:23.183Z,19.40
2023-01-13T13:22:12.236Z,22.00
2023-01-13T13:24:48.714Z,14.30
2023-01-13T13:27:44.359Z,12.30
2023-01-13T13:30:18.284Z,12.90
2023-01-13T13:32:45.395Z,13.80
2023-01-13T13:35:18.456Z,20.40
2023-01-13T13:38:17.864Z,15.80
2023-01-13T13:41:06.010Z,14.90
2023-01-13T13:43:59.020Z,12.30
2023-01-13T13:46:48.969Z,14.00
2023-01-13T13:49:22.573Z,18.40
2023-01-13T13:52:11.068Z,11.00
2023-01-13T13:54:42.889Z,12.00
2023-01-13T13:57:18.588Z,10.60
2023-01-13T14:02:20.696Z,10.30
2023-01-13T14:04:47.969Z,21.00
2023-01-13T14:07:21.403Z,20.60
2023-01-13T14:09:54.431Z,13.40
2023-01-13T14:12:24.559Z,15.40
2023-01-13T14:14:54.378Z,19.00
2023-01-13T14:17:28.987Z,17.70
2023-01-13T14:20:02.986Z,12.80
2023-01-13T14:22:30.213Z,14.20
2023-01-13T14:24:58.235Z,19.10
2023-01-13T14:27:27.909Z,22.90
2023-01-13T14:30:02.140Z,26.30
2023-01-13T14:32:35.115Z,21.80
2023-01-13T14:35:06.208Z,15.30
2023-01-13T14:37:40.469Z,23.60
2023-01-13T14:40:33.605Z,60.20
2023-01-13T14:43:02.462Z,50.30
2023-01-13T14:45:33.179Z,24.90
2023-01-13T14:48:01.776Z,63.70
2023-01-13T14:50:32.868Z,107.90
2023-01-13T14:53:01.702Z,115.90
2023-01-13T14:55:36.552Z,117.10
2023-01-13T14:58:22.198Z,75.60
2023-01-13T15:00:51.066Z,71.80
2023-01-13T15:03:21.103Z,47.00
2023-01-13T15:05:50.841Z,30.10
2023-01-13T15:08:30.587Z,22.20
2023-01-13T15:11:00.421Z,16.80
2023-01-13T15:13:47.614Z,28.10
2023-01-13T15:16:26.145Z,14.70
2023-01-13T15:18:55.322Z,30.50
2023-01-13T15:21:23.409Z,23.60
2023-01-13T15:23:51.048Z,39.90
2023-01-13T15:26:19.905Z,39.50
2023-01-13T15:28:47.541Z,31.70
2023-01-13T15:31:15.242Z,25.70
2023-01-13T15:33:43.361Z,66.40
2023-01-13T15:36:23.625Z,64.20
2023-01-13T15:38:51.028Z,67.30
2023-01-13T15:41:38.249Z,74.60
2023-01-13T15:44:24.390Z,45.00
2023-01-13T15:46:52.463Z,40.00
2023-01-13T15:49:41.424Z,63.80
2023-01-13T15:52:21.613Z,39.10
2023-01-13T15:54:49.868Z,51.40
2023-01-13T15:57:20.272Z,64.10
2023-01-13T15:59:47.439Z,54.60
2023-01-13T16:02:18.502Z,64.10
2023-01-13T16:04:46.118Z,53.70
2023-01-13T16:07:16.756Z,44.50
2023-01-13T16:09:45.411Z,38.40
2023-01-13T16:12:13.819Z,31.50
2023-01-13T16:14:41.006Z,68.80
2023-01-13T16:17:21.103Z,111.50
2023-01-13T16:19:48.514Z,83.90
2023-01-13T16:22:16.605Z,121.50
2023-01-13T16:24:44.371Z,38.80
2023-01-13T16:27:19.013Z,42.20
2023-01-13T16:29:47.366Z,55.20
2023-01-13T16:32:14.886Z,33.30
2023-01-13T16:34:42.991Z,31.80
2023-01-13T16:37:21.751Z,36.70
2023-01-13T16:39:48.887Z,37.60
2023-01-13T16:42:16.681Z,30.30
2023-01-13T16:44:44.296Z,25.90
2023-01-13T16:47:17.217Z,15.00
2023-01-13T16:49:45.419Z,24.10
2023-01-13T16:52:12.707Z,24.50
2023-01-13T16:54:39.963Z,28.10
2023-01-13T16:57:07.954Z,22.10
2023-01-13T16:59:35.164Z,21.70
2023-01-13T17:02:02.379Z,19.90
2023-01-13T17:04:29.604Z,21.20
2023-01-13T17:07:06.199Z,26.00
2023-01-13T17:09:33.278Z,26.80
2023-01-13T17:12:00.568Z,22.10
2023-01-13T17:14:27.746Z,31.60
2023-01-13T17:16:58.225Z,41.70
2023-01-13T17:19:25.874Z,51.10
2023-01-13T17:21:53.207Z,40.60
2023-01-13T17:24:20.903Z,43.00
2023-01-13T17:26:50.619Z,36.80
2023-01-13T17:29:23.118Z,39.30
2023-01-13T17:31:51.205Z,19.00
2023-01-13T17:34:19.755Z,26.30
2023-01-13T17:36:47.494Z,18.70
2023-01-13T17:39:23.781Z,20.50
2023-01-13T17:41:52.294Z,23.10
2023-01-13T17:44:21.581Z,30.40
2023-01-13T17:46:49.073Z,22.30
2023-01-13T17:49:21.409Z,22.20
2023-01-13T17:51:48.668Z,30.30
2023-01-13T17:54:16.186Z,29.40
2023-01-13T17:56:43.893Z,26.00
2023-01-13T17:59:12.696Z,32.60
2023-01-13T18:01:40.993Z,30.60
2023-01-13T18:04:16.712Z,35.70
2023-01-13T18:09:11.426Z,29.10
2023-01-13T18:11:38.926Z,31.50
2023-01-13T18:14:06.387Z,40.60
2023-01-13T18:16:33.746Z,65.90
2023-01-13T18:19:20.013Z,69.80
2023-01-13T18:22:06.794Z,49.10
2023-01-13T18:25:03.343Z,38.40
2023-01-13T18:27:35.836Z,41.70
2023-01-13T18:30:04.002Z,54.40
2023-01-13T18:32:33.592Z,33.60
2023-01-13T18:35:06.638Z,34.80
2023-01-13T18:37:42.318Z,37.50
2023-01-13T18:40:12.648Z,57.10
2023-01-13T18:42:52.311Z,66.50
2023-01-13T18:45:22.046Z,45.60
2023-01-13T18:47:49.321Z,82.80
2023-01-13T18:50:17.527Z,38.30
2023-01-13T18:52:44.974Z,26.90
2023-01-13T18:55:12.153Z,42.30
2023-01-13T18:57:40.278Z,44.00
2023-01-13T19:00:10.386Z,91.80
2023-01-13T19:02:37.850Z,45.60
2023-01-13T19:05:05.926Z,43.50
2023-01-13T19:07:35.647Z,35.50
2023-01-13T19:10:04.592Z,37.10
2023-01-13T19:12:33.846Z,38.40
2023-01-13T19:15:02.317Z,44.20
2023-01-13T19:17:34.999Z,199.00
2023-01-13T19:20:02.886Z,269.20
2023-01-13T19:22:32.938Z,53.10
2023-01-13T19:25:01.957Z,50.20
2023-01-13T19:27:29.410Z,79.90
2023-01-13T19:30:00.722Z,53.90
2023-01-13T19:32:30.876Z,48.00
2023-01-13T19:34:59.837Z,47.40
2023-01-13T19:37:33.772Z,28.10
2023-01-13T19:40:01.351Z,27.60
2023-01-13T19:42:47.153Z,33.70
2023-01-13T19:48:01.793Z,79.60
2023-01-13T19:50:29.299Z,60.10
2023-01-13T19:52:56.491Z,42.80
2023-01-13T19:55:24.515Z,37.80
2023-01-13T19:57:51.694Z,42.00
2023-01-13T20:00:20.993Z,52.50
2023-01-13T20:02:49.922Z,34.90
2023-01-13T20:05:21.450Z,45.50
2023-01-13T20:07:50.761Z,63.60
2023-01-13T20:10:20.032Z,32.90
2023-01-13T20:12:47.293Z,55.10
2023-01-13T20:15:14.911Z,32.60
2023-01-13T20:17:42.123Z,27.40
2023-01-13T20:20:10.959Z,29.10
2023-01-13T20:22:39.525Z,20.70
2023-01-13T20:25:07.532Z,20.30
2023-01-13T20:27:35.596Z,20.10
2023-01-13T20:30:03.036Z,19.20
2023-01-13T20:32:30.255Z,20.80
2023-01-13T20:34:57.459Z,25.00
2023-01-13T20:37:24.557Z,29.20
2023-01-13T20:39:51.796Z,35.80
2023-01-13T20:42:32.289Z,32.10
2023-01-13T20:45:01.215Z,24.40
2023-01-13T20:47:29.923Z,17.60
2023-01-13T20:49:57.156Z,16.50
2023-01-13T20:52:24.904Z,15.40
2023-01-13T20:54:52.112Z,18.30
2023-01-13T20:57:19.504Z,21.00
2023-01-13T20:59:46.757Z,19.20
2023-01-13T21:02:15.745Z,16.80
2023-01-13T21:04:42.974Z,13.20
2023-01-13T21:07:10.622Z,17.60
2023-01-13T21:09:38.101Z,17.50
2023-01-13T21:12:25.394Z,15.20
2023-01-13T21:15:11.385Z,28.50
2023-01-13T21:17:57.100Z,37.90
2023-01-13T21:20:24.276Z,32.90
2023-01-13T21:22:51.441Z,35.40
2023-01-13T21:25:19.578Z,26.20
2023-01-13T21:27:46.776Z,32.90
2023-01-13T21:30:15.923Z,24.00
2023-01-13T21:32:44.243Z,31.00
2023-01-13T21:35:13.451Z,22.00
2023-01-13T21:37:42.583Z,24.10
2023-01-13T21:40:13.263Z,28.40
2023-01-13T21:42:59.068Z,21.50
2023-01-13T21:45:45.038Z,22.00
2023-01-13T21:48:12.359Z,19.40
2023-01-13T21:50:39.657Z,23.40
2023-01-13T21:53:08.178Z,20.60
2023-01-13T21:55:36.990Z,25.90
2023-01-13T21:58:12.950Z,16.80
2023-01-13T22:00:44.863Z,20.70
2023-01-13T22:03:14.051Z,19.10
2023-01-13T22:05:41.719Z,16.80
2023-01-13T22:08:12.589Z,20.50
2023-01-13T22:10:57.578Z,17.60
2023-01-13T22:13:47.943Z,14.70
2023-01-13T22:16:15.996Z,23.20
2023-01-13T22:18:43.322Z,18.30
2023-01-13T22:21:11.190Z,24.90
2023-01-13T22:23:38.442Z,21.80
2023-01-13T22:26:07.837Z,12.10
2023-01-13T22:28:40.885Z,15.90
2023-01-13T22:31:14.111Z,13.60
2023-01-13T22:33:42.177Z,21.80
2023-01-13T22:36:10.377Z,64.00
2023-01-13T22:38:37.607Z,37.80
2023-01-13T22:41:07.802Z,39.30
2023-01-13T22:43:36.083Z,24.70
2023-01-13T22:46:06.348Z,27.90
2023-01-13T22:48:34.455Z,19.40
2023-01-13T22:51:08.832Z,15.50
2023-01-13T22:53:36.993Z,19.30
2023-01-13T22:56:05.109Z,16.40
2023-01-13T22:58:32.274Z,17.70
2023-01-13T23:01:14.108Z,15.20
2023-01-13T23:03:42.084Z,22.90
2023-01-13T23:06:09.412Z,16.30
2023-01-13T23:08:36.824Z,15.20
2023-01-13T23:11:06.123Z,14.20
2023-01-13T23:13:33.962Z,15.20
2023-01-13T23:16:06.362Z,15.00
2023-01-13T23:18:34.284Z,22.00
2023-01-13T23:21:10.605Z,14.20
2023-01-13T23:23:38.022Z,18.70
2023-01-13T23:26:06.726Z,31.70
2023-01-13T23:28:35.272Z,29.70
2023-01-13T23:31:10.714Z,22.80
2023-01-13T23:33:38.049Z,19.10
2023-01-13T23:36:06.910Z,11.60
2023-01-13T23:38:34.501Z,20.90
2023-01-13T23:41:06.265Z,14.40
2023-01-13T23:43:33.511Z,15.60
2023-01-13T23:46:11.532Z,18.40
2023-01-13T23:48:39.547Z,13.10
2023-01-13T23:51:10.693Z,130.40
2023-01-13T23:53:40.687Z,164.70
2023-01-13T23:56:11.638Z,474.20
2023-01-13T23:58:38.721Z,379.10
